createdAt,value
2022-11-08T00:01:39.706Z,12.05
2022-11-08T00:07:29.148Z,12.09
2022-11-08T00:10:19.136Z,12.05
2022-11-08T00:13:25.833Z,12.11
2022-11-08T00:16:10.384Z,12.08
2022-11-08T00:18:56.047Z,11.99
2022-11-08T00:21:32.210Z,12.02
2022-11-08T00:23:58.715Z,12.01
2022-11-08T00:29:25.436Z,11.97
2022-11-08T00:31:51.829Z,11.90
2022-11-08T00:34:40.172Z,11.89
2022-11-08T00:37:14.500Z,11.89
2022-11-08T00:39:51.801Z,11.92
2022-11-08T00:42:28.429Z,11.88
2022-11-08T00:44:54.800Z,11.88
2022-11-08T00:47:21.483Z,11.88
2022-11-08T00:49:53.604Z,11.83
2022-11-08T00:55:13.896Z,11.83
2022-11-08T00:57:58.587Z,11.84
2022-11-08T01:00:35.360Z,11.86
2022-11-08T01:03:40.199Z,11.87
2022-11-08T01:06:08.350Z,11.81
2022-11-08T01:09:11.446Z,11.79
2022-11-08T01:11:51.278Z,11.77
2022-11-08T01:14:17.696Z,11.82
2022-11-08T01:16:59.971Z,11.81
2022-11-08T01:19:29.222Z,11.82
2022-11-08T01:21:55.855Z,11.69
2022-11-08T01:24:27.024Z,11.70
2022-11-08T01:27:10.192Z,11.54
2022-11-08T01:30:00.485Z,11.66
2022-11-08T01:33:19.474Z,11.64
2022-11-08T01:36:01.439Z,11.59
2022-11-08T01:38:58.431Z,11.45
2022-11-08T01:41:25.690Z,11.50
2022-11-08T01:44:01.427Z,11.54
2022-11-08T01:46:35.467Z,11.58
2022-11-08T01:49:42.268Z,11.51
2022-11-08T01:52:27.176Z,11.54
2022-11-08T01:54:56.043Z,11.48
2022-11-08T01:57:36.751Z,11.46
2022-11-08T02:00:07.961Z,11.45
2022-11-08T02:02:39.366Z,11.47
2022-11-08T02:05:25.404Z,11.51
2022-11-08T02:08:40.603Z,11.62
2022-11-08T02:14:03.285Z,11.48
2022-11-08T02:16:29.843Z,11.47
2022-11-08T02:19:14.188Z,11.60
2022-11-08T02:21:56.816Z,11.65
2022-11-08T02:24:31.838Z,11.59
2022-11-08T02:27:02.372Z,11.66
2022-11-08T02:30:05.675Z,11.63
2022-11-08T02:33:00.391Z,11.69
2022-11-08T02:35:27.758Z,11.69
2022-11-08T02:37:56.982Z,11.68
2022-11-08T02:40:23.483Z,11.69
2022-11-08T02:42:50.237Z,11.69
2022-11-08T02:45:16.650Z,11.68
2022-11-08T02:47:59.799Z,11.68
2022-11-08T02:50:26.174Z,11.57
2022-11-08T02:52:52.595Z,11.74
2022-11-08T02:55:18.970Z,11.62
2022-11-08T02:57:45.588Z,11.67
2022-11-08T03:00:22.893Z,11.71
2022-11-08T03:02:59.403Z,11.70
2022-11-08T03:05:26.955Z,11.78
2022-11-08T03:07:54.520Z,11.70
2022-11-08T03:10:22.025Z,11.71
2022-11-08T03:13:17.095Z,11.69
2022-11-08T03:15:57.927Z,11.70
2022-11-08T03:18:32.247Z,11.65
2022-11-08T03:21:11.828Z,11.54
2022-11-08T03:24:01.065Z,11.62
2022-11-08T03:26:27.464Z,11.49
2022-11-08T03:28:54.114Z,11.42
2022-11-08T03:31:37.019Z,11.48
2022-11-08T03:34:11.314Z,11.29
2022-11-08T03:37:08.315Z,11.37
2022-11-08T03:39:38.403Z,11.35
2022-11-08T03:42:08.312Z,11.31
2022-11-08T03:44:58.704Z,11.31
2022-11-08T03:47:25.591Z,11.29
2022-11-08T03:49:52.130Z,11.24
2022-11-08T03:52:18.798Z,11.23
2022-11-08T03:54:48.247Z,11.22
2022-11-08T03:57:16.074Z,11.21
2022-11-08T03:59:42.645Z,11.16
2022-11-08T04:02:15.297Z,11.17
2022-11-08T04:05:02.309Z,11.10
2022-11-08T04:10:30.009Z,11.01
2022-11-08T04:13:18.813Z,10.90
2022-11-08T04:15:46.599Z,10.99
2022-11-08T04:18:31.852Z,10.97
2022-11-08T04:21:19.150Z,11.04
2022-11-08T04:23:47.565Z,11.00
2022-11-08T04:26:13.967Z,10.80
2022-11-08T04:28:42.096Z,10.84
2022-11-08T04:40:24.893Z,10.82
2022-11-08T04:42:51.449Z,10.84
2022-11-08T04:45:18.383Z,10.71
2022-11-08T04:47:54.915Z,10.74
2022-11-08T04:50:25.551Z,10.67
2022-11-08T04:52:53.722Z,10.56
2022-11-08T04:55:21.191Z,10.65
2022-11-08T04:57:57.105Z,10.58
2022-11-08T05:00:23.452Z,10.48
2022-11-08T05:03:15.484Z,10.62
2022-11-08T05:06:05.445Z,10.47
2022-11-08T05:09:00.180Z,10.36
2022-11-08T05:11:28.584Z,10.45
2022-11-08T05:13:55.520Z,10.24
2022-11-08T05:16:29.335Z,10.45
2022-11-08T05:19:00.465Z,10.32
2022-11-08T05:21:54.825Z,10.32
2022-11-08T05:24:23.808Z,10.11
2022-11-08T05:26:53.394Z,10.16
2022-11-08T05:32:09.605Z,10.05
2022-11-08T05:34:36.032Z,10.11
2022-11-08T05:37:06.121Z,10.27
2022-11-08T05:39:32.962Z,10.05
2022-11-08T05:41:59.330Z,9.92
2022-11-08T05:44:25.901Z,10.03
2022-11-08T05:46:52.256Z,10.00
2022-11-08T05:49:18.646Z,9.91
2022-11-08T05:51:44.976Z,9.76
2022-11-08T05:54:13.194Z,9.83
2022-11-08T05:56:39.782Z,10.01
2022-11-08T05:59:06.439Z,9.99
2022-11-08T06:01:33.202Z,9.85
2022-11-08T06:03:59.763Z,9.96
2022-11-08T06:06:26.436Z,10.05
2022-11-08T06:08:54.167Z,10.02
2022-11-08T06:11:24.281Z,10.03
2022-11-08T06:13:52.803Z,10.10
2022-11-08T06:16:21.126Z,10.10
2022-11-08T06:18:47.759Z,10.11
2022-11-08T06:21:17.217Z,10.18
2022-11-08T06:23:54.780Z,9.99
2022-11-08T06:26:24.663Z,10.07
2022-11-08T06:28:51.344Z,10.07
2022-11-08T06:31:17.890Z,9.87
2022-11-08T06:33:48.974Z,10.07
2022-11-08T06:36:18.007Z,9.97
2022-11-08T06:38:55.344Z,9.74
2022-11-08T06:41:23.897Z,9.85
2022-11-08T06:43:53.038Z,9.93
2022-11-08T06:46:21.736Z,9.94
2022-11-08T06:48:50.903Z,9.84
2022-11-08T06:51:20.756Z,9.80
2022-11-08T06:54:02.255Z,9.94
2022-11-08T06:57:12.467Z,9.81
2022-11-08T06:59:54.842Z,9.86
2022-11-08T07:02:21.311Z,9.83
2022-11-08T07:04:58.893Z,9.90
2022-11-08T07:07:25.435Z,9.71
2022-11-08T07:09:51.836Z,9.79
2022-11-08T07:12:18.398Z,9.66
2022-11-08T07:14:44.982Z,9.92
2022-11-08T07:17:11.351Z,9.85
2022-11-08T07:19:37.944Z,9.74
2022-11-08T07:22:04.436Z,9.51
2022-11-08T07:24:38.302Z,9.68
2022-11-08T07:27:04.965Z,9.62
2022-11-08T07:32:20.170Z,9.65
2022-11-08T07:35:02.129Z,9.64
2022-11-08T07:37:28.568Z,9.87
2022-11-08T07:39:54.966Z,10.01
2022-11-08T07:43:10.069Z,9.98
2022-11-08T07:46:03.940Z,10.08
2022-11-08T07:48:31.447Z,10.14
2022-11-08T07:51:13.386Z,10.18
2022-11-08T07:53:39.823Z,10.26
2022-11-08T07:56:09.209Z,10.20
2022-11-08T07:58:35.757Z,10.19
2022-11-08T08:01:09.423Z,10.22
2022-11-08T08:03:35.870Z,10.25
2022-11-08T08:06:02.570Z,10.47
2022-11-08T08:08:30.062Z,10.41
2022-11-08T08:11:07.048Z,10.46
2022-11-08T08:13:39.066Z,10.49
2022-11-08T08:16:05.598Z,10.54
2022-11-08T08:18:32.081Z,10.60
2022-11-08T08:20:58.712Z,10.60
2022-11-08T08:23:25.165Z,10.66
2022-11-08T08:25:52.905Z,10.72
2022-11-08T08:28:19.447Z,10.72
2022-11-08T08:30:45.877Z,10.66
2022-11-08T08:33:34.001Z,10.65
2022-11-08T08:36:01.854Z,10.77
2022-11-08T08:38:28.957Z,10.72
2022-11-08T08:41:03.227Z,10.74
2022-11-08T08:43:32.605Z,10.80
2022-11-08T08:46:08.227Z,10.88
2022-11-08T08:48:40.160Z,10.88
2022-11-08T08:51:07.076Z,10.92
2022-11-08T08:56:18.268Z,10.97
2022-11-08T09:04:22.956Z,11.07
2022-11-08T09:06:52.220Z,11.24
2022-11-08T09:09:18.649Z,11.19
2022-11-08T09:11:49.848Z,11.22
2022-11-08T09:14:16.564Z,11.31
2022-11-08T09:16:43.003Z,11.33
2022-11-08T09:19:13.274Z,11.34
2022-11-08T09:21:50.930Z,11.41
2022-11-08T09:24:17.912Z,11.39
2022-11-08T09:26:54.272Z,11.49
2022-11-08T09:29:30.585Z,11.47
2022-11-08T09:31:57.149Z,11.56
2022-11-08T09:34:26.126Z,11.58
2022-11-08T09:36:52.880Z,11.64
2022-11-08T09:39:28.661Z,11.58
2022-11-08T09:42:18.329Z,11.74
2022-11-08T09:45:22.372Z,11.74
2022-11-08T09:47:56.081Z,11.70
2022-11-08T09:50:35.117Z,11.72
2022-11-08T09:53:35.615Z,11.70
2022-11-08T09:56:14.099Z,11.80
2022-11-08T09:58:50.544Z,11.88
2022-11-08T10:01:17.382Z,11.97
2022-11-08T10:04:05.563Z,11.93
2022-11-08T10:06:46.394Z,12.02
2022-11-08T10:09:15.964Z,12.09
2022-11-08T10:14:54.344Z,12.13
2022-11-08T10:18:09.324Z,12.21
2022-11-08T10:21:23.795Z,12.27
2022-11-08T10:24:19.757Z,12.34
2022-11-08T10:26:46.358Z,12.29
2022-11-08T10:29:21.974Z,12.41
2022-11-08T10:32:07.643Z,12.47
2022-11-08T10:34:43.726Z,12.61
2022-11-08T10:37:27.456Z,12.68
2022-11-08T10:40:03.904Z,12.68
2022-11-08T10:42:59.022Z,12.64
2022-11-08T10:45:25.482Z,12.77
2022-11-08T10:47:53.153Z,12.78
2022-11-08T10:50:26.079Z,12.82
2022-11-08T10:52:57.341Z,12.85
2022-11-08T10:55:33.642Z,12.89
2022-11-08T10:58:00.499Z,12.89
2022-11-08T11:00:33.269Z,12.97
2022-11-08T11:03:05.779Z,13.04
2022-11-08T11:05:38.075Z,13.03
2022-11-08T11:08:10.419Z,13.11
2022-11-08T11:10:58.396Z,13.14
2022-11-08T11:16:01.289Z,13.17
2022-11-08T11:18:46.073Z,13.21
2022-11-08T11:21:16.047Z,13.29
2022-11-08T11:23:45.766Z,13.31
2022-11-08T11:26:48.099Z,13.38
2022-11-08T11:29:18.724Z,13.44
2022-11-08T11:31:47.804Z,13.45
2022-11-08T11:34:19.696Z,13.57
2022-11-08T11:37:10.550Z,13.57
2022-11-08T11:40:00.200Z,13.57
2022-11-08T11:42:52.597Z,13.69
2022-11-08T11:45:25.785Z,13.58
2022-11-08T11:47:55.859Z,13.69
2022-11-08T11:50:39.858Z,13.69
2022-11-08T11:53:43.524Z,13.68
2022-11-08T11:56:38.452Z,13.68
2022-11-08T11:59:39.783Z,13.70
2022-11-08T12:02:12.320Z,13.70
2022-11-08T12:05:16.376Z,13.66
2022-11-08T12:07:58.169Z,13.77
2022-11-08T12:10:39.227Z,13.79
2022-11-08T12:13:32.367Z,13.78
2022-11-08T12:16:14.181Z,13.79
2022-11-08T12:18:53.586Z,13.65
2022-11-08T12:21:31.544Z,13.77
2022-11-08T12:24:26.142Z,13.67
2022-11-08T12:27:30.283Z,13.66
2022-11-08T12:30:08.748Z,13.60
2022-11-08T12:33:13.545Z,13.63
2022-11-08T12:36:01.752Z,13.68
2022-11-08T12:38:50.707Z,13.67
2022-11-08T12:41:34.618Z,13.69
2022-11-08T12:44:31.415Z,13.64
2022-11-08T12:47:06.966Z,13.74
2022-11-08T12:49:46.961Z,13.77
2022-11-08T12:52:35.300Z,13.80
2022-11-08T12:55:07.420Z,13.77
2022-11-08T12:57:34.236Z,13.78
2022-11-08T13:00:18.671Z,13.87
2022-11-08T13:03:23.477Z,13.89
2022-11-08T13:06:03.230Z,13.85
2022-11-08T13:08:52.886Z,13.91
2022-11-08T13:11:39.027Z,13.89
2022-11-08T13:14:05.496Z,13.89
2022-11-08T13:16:39.444Z,13.95
2022-11-08T13:19:06.686Z,14.03
2022-11-08T13:21:41.176Z,14.07
2022-11-08T13:24:37.906Z,14.07
2022-11-08T13:27:21.409Z,14.07
2022-11-08T13:29:47.891Z,13.96
2022-11-08T13:32:43.831Z,14.02
2022-11-08T13:35:37.557Z,13.95
2022-11-08T13:38:23.550Z,13.91
2022-11-08T13:41:11.971Z,13.82
2022-11-08T13:43:39.567Z,13.88
2022-11-08T13:46:30.297Z,13.81
2022-11-08T13:49:18.442Z,13.72
2022-11-08T13:51:46.041Z,13.81
2022-11-08T13:54:21.551Z,13.87
2022-11-08T13:56:56.404Z,13.72
2022-11-08T13:59:32.090Z,13.75
2022-11-08T14:01:59.238Z,13.80
2022-11-08T14:04:29.484Z,13.83
2022-11-08T14:07:04.945Z,13.94
2022-11-08T14:09:52.914Z,13.86
2022-11-08T14:12:34.554Z,13.83
2022-11-08T14:15:18.807Z,13.65
2022-11-08T14:18:11.248Z,13.87
2022-11-08T14:20:48.076Z,13.83
2022-11-08T14:23:28.051Z,13.80
2022-11-08T14:25:55.994Z,13.79
2022-11-08T14:28:26.059Z,13.80
2022-11-08T14:30:52.900Z,13.75
2022-11-08T14:33:21.250Z,13.77
2022-11-08T14:36:02.151Z,13.87
2022-11-08T14:38:32.308Z,13.79
2022-11-08T14:41:01.432Z,13.73
2022-11-08T14:43:29.575Z,13.86
2022-11-08T14:45:59.451Z,13.86
2022-11-08T14:48:31.162Z,13.80
2022-11-08T14:51:01.825Z,13.80
2022-11-08T14:53:46.772Z,13.84
2022-11-08T14:56:28.664Z,13.87
2022-11-08T14:58:59.395Z,13.87
2022-11-08T15:01:26.955Z,13.87
2022-11-08T15:04:08.649Z,13.80
2022-11-08T15:06:42.997Z,13.75
2022-11-08T15:09:21.551Z,13.73
2022-11-08T15:12:12.857Z,13.72
2022-11-08T15:15:05.971Z,13.73
2022-11-08T15:17:58.845Z,13.66
2022-11-08T15:20:25.428Z,13.78
2022-11-08T15:22:55.539Z,13.62
2022-11-08T15:25:37.136Z,13.67
2022-11-08T15:28:16.102Z,13.70
2022-11-08T15:30:43.954Z,13.69
2022-11-08T15:33:33.270Z,13.54
2022-11-08T15:36:00.086Z,13.53
2022-11-08T15:38:36.464Z,13.55
2022-11-08T15:41:05.358Z,13.48
2022-11-08T15:43:32.168Z,13.41
2022-11-08T15:46:03.616Z,13.52
2022-11-08T15:48:30.187Z,13.51
2022-11-08T15:50:56.916Z,13.43
2022-11-08T15:53:25.134Z,13.34
2022-11-08T15:56:02.142Z,13.43
2022-11-08T15:58:31.511Z,13.43
2022-11-08T16:01:00.748Z,13.48
2022-11-08T16:03:28.277Z,13.42
2022-11-08T16:06:03.989Z,13.40
2022-11-08T16:08:30.394Z,13.41
2022-11-08T16:11:01.192Z,13.28
2022-11-08T16:13:30.384Z,13.34
2022-11-08T16:15:58.264Z,13.38
2022-11-08T16:18:24.979Z,13.39
2022-11-08T16:20:51.353Z,13.44
2022-11-08T16:23:18.253Z,13.41
2022-11-08T16:25:47.858Z,13.42
2022-11-08T16:28:27.128Z,13.35
2022-11-08T16:30:53.596Z,13.39
2022-11-08T16:33:25.291Z,13.41
2022-11-08T16:36:15.140Z,13.40
2022-11-08T16:38:57.754Z,13.43
2022-11-08T16:41:25.449Z,13.25
2022-11-08T16:43:52.139Z,13.39
2022-11-08T16:46:22.882Z,13.40
2022-11-08T16:48:59.197Z,13.39
2022-11-08T16:51:25.763Z,13.37
2022-11-08T16:53:53.359Z,13.35
2022-11-08T16:56:19.824Z,13.24
2022-11-08T16:58:46.265Z,13.32
2022-11-08T17:01:32.919Z,13.28
2022-11-08T17:03:59.379Z,13.29
2022-11-08T17:06:25.799Z,13.35
2022-11-08T17:08:52.786Z,13.33
2022-11-08T17:11:21.932Z,13.33
2022-11-08T17:13:49.039Z,13.29
2022-11-08T17:16:16.321Z,13.31
2022-11-08T17:18:47.430Z,13.21
2022-11-08T17:21:43.107Z,13.18
2022-11-08T17:24:03.013Z,13.12
2022-11-08T17:26:29.396Z,13.24
2022-11-08T17:28:56.417Z,13.31
2022-11-08T17:31:22.761Z,13.31
2022-11-08T17:33:49.509Z,13.33
2022-11-08T17:36:15.846Z,13.34
2022-11-08T17:38:42.428Z,13.32
2022-11-08T17:41:13.188Z,13.25
2022-11-08T17:43:39.947Z,13.31
2022-11-08T17:46:07.013Z,13.22
2022-11-08T17:48:34.306Z,13.30
2022-11-08T17:51:00.824Z,13.29
2022-11-08T17:53:27.262Z,13.21
2022-11-08T17:55:57.254Z,13.21
2022-11-08T17:58:26.038Z,13.11
2022-11-08T18:00:57.809Z,13.20
2022-11-08T18:03:26.454Z,13.31
2022-11-08T18:05:58.096Z,13.28
2022-11-08T18:11:12.521Z,13.18
2022-11-08T18:13:39.272Z,13.13
2022-11-08T18:16:11.969Z,13.21
2022-11-08T18:18:41.789Z,13.21
2022-11-08T18:21:09.154Z,13.27
2022-11-08T18:23:47.210Z,13.17
2022-11-08T18:26:16.535Z,13.15
2022-11-08T18:28:44.970Z,13.07
2022-11-08T18:31:15.124Z,13.15
2022-11-08T18:33:42.497Z,13.15
2022-11-08T18:36:11.925Z,13.24
2022-11-08T18:38:57.883Z,13.19
2022-11-08T18:41:27.146Z,13.21
2022-11-08T18:43:54.295Z,13.22
2022-11-08T18:46:26.490Z,13.17
2022-11-08T18:48:53.549Z,13.17
2022-11-08T18:51:24.276Z,13.20
2022-11-08T18:53:54.175Z,13.15
2022-11-08T18:56:23.364Z,13.31
2022-11-08T18:58:50.705Z,13.33
2022-11-08T19:01:17.679Z,13.32
2022-11-08T19:03:44.303Z,13.27
2022-11-08T19:06:25.597Z,13.27
2022-11-08T19:08:55.774Z,13.19
2022-11-08T19:11:27.994Z,13.21
2022-11-08T19:13:54.430Z,13.17
2022-11-08T19:16:21.073Z,13.21
2022-11-08T19:18:49.673Z,13.24
2022-11-08T19:21:21.747Z,13.26
2022-11-08T19:23:50.224Z,13.28
2022-11-08T19:26:20.093Z,13.29
2022-11-08T19:28:54.816Z,13.26
2022-11-08T19:31:24.247Z,13.25
2022-11-08T19:33:57.046Z,13.32
2022-11-08T19:36:40.316Z,13.33
2022-11-08T19:39:06.734Z,13.23
2022-11-08T19:41:33.234Z,13.17
2022-11-08T19:43:59.877Z,13.24
2022-11-08T19:46:32.403Z,13.24
2022-11-08T19:49:01.875Z,13.28
2022-11-08T19:51:30.967Z,13.10
2022-11-08T19:53:59.950Z,13.16
2022-11-08T19:56:43.769Z,13.25
2022-11-08T19:59:13.326Z,13.04
2022-11-08T20:01:42.793Z,13.15
2022-11-08T20:04:11.302Z,13.28
2022-11-08T20:06:38.576Z,13.25
2022-11-08T20:09:09.958Z,13.16
2022-11-08T20:11:40.205Z,13.27
2022-11-08T20:14:07.829Z,13.17
2022-11-08T20:16:39.998Z,13.13
2022-11-08T20:19:16.788Z,13.22
2022-11-08T20:21:45.962Z,13.17
2022-11-08T20:24:18.765Z,13.11
2022-11-08T20:26:51.367Z,13.16
2022-11-08T20:29:18.589Z,13.12
2022-11-08T20:31:45.793Z,13.11
2022-11-08T20:34:26.793Z,13.09
2022-11-08T20:36:53.504Z,13.10
2022-11-08T20:39:20.376Z,13.19
2022-11-08T20:41:56.093Z,13.11
2022-11-08T20:44:24.057Z,12.98
2022-11-08T20:46:51.055Z,13.07
2022-11-08T20:49:17.519Z,13.08
2022-11-08T20:51:54.464Z,13.15
2022-11-08T20:54:20.863Z,13.05
2022-11-08T20:56:56.428Z,13.07
2022-11-08T20:59:25.395Z,13.10
2022-11-08T21:01:54.925Z,13.05
2022-11-08T21:04:21.472Z,12.94
2022-11-08T21:06:47.868Z,13.05
2022-11-08T21:09:36.278Z,12.96
2022-11-08T21:12:18.862Z,13.09
2022-11-08T21:14:50.660Z,13.00
2022-11-08T21:17:22.254Z,13.02
2022-11-08T21:19:52.944Z,13.03
2022-11-08T21:22:19.510Z,12.97
2022-11-08T21:24:48.030Z,12.96
2022-11-08T21:27:15.487Z,12.95
2022-11-08T21:29:45.385Z,12.90
2022-11-08T21:32:11.819Z,12.98
2022-11-08T21:34:39.701Z,13.04
2022-11-08T21:37:07.851Z,12.91
2022-11-08T21:39:34.231Z,12.72
2022-11-08T21:42:00.581Z,12.87
2022-11-08T21:44:27.053Z,12.88
2022-11-08T21:46:53.389Z,12.58
2022-11-08T21:49:19.811Z,12.71
2022-11-08T21:51:46.152Z,12.79
2022-11-08T21:54:12.586Z,12.78
2022-11-08T21:56:49.866Z,12.80
2022-11-08T21:59:16.272Z,12.83
2022-11-08T22:01:42.765Z,12.84
2022-11-08T22:04:09.256Z,12.74
2022-11-08T22:06:36.242Z,12.70
2022-11-08T22:09:02.830Z,12.55
2022-11-08T22:11:29.181Z,12.57
2022-11-08T22:13:58.496Z,12.62
2022-11-08T22:16:30.433Z,12.47
2022-11-08T22:19:04.627Z,12.48
2022-11-08T22:21:42.872Z,12.50
2022-11-08T22:24:16.993Z,12.47
2022-11-08T22:26:53.107Z,12.45
2022-11-08T22:29:20.209Z,12.29
2022-11-08T22:31:47.140Z,12.46
2022-11-08T22:34:13.825Z,12.51
2022-11-08T22:36:45.022Z,12.28
2022-11-08T22:39:17.990Z,12.39
2022-11-08T22:41:47.875Z,12.42
2022-11-08T22:44:15.145Z,12.21
2022-11-08T22:46:42.835Z,12.30
2022-11-08T22:49:10.025Z,12.35
2022-11-08T22:51:36.848Z,12.42
2022-11-08T22:54:09.183Z,12.43
2022-11-08T22:56:46.425Z,12.45
2022-11-08T22:59:12.940Z,12.27
2022-11-08T23:01:39.313Z,12.38
2022-11-08T23:04:05.910Z,12.43
2022-11-08T23:06:32.553Z,12.40
2022-11-08T23:08:59.222Z,12.33
2022-11-08T23:11:44.065Z,12.38
2022-11-08T23:14:35.488Z,12.33
2022-11-08T23:17:03.240Z,12.15
2022-11-08T23:19:48.540Z,12.26
2022-11-08T23:22:35.401Z,12.15
2022-11-08T23:25:01.984Z,12.02
2022-11-08T23:27:46.967Z,12.22
2022-11-08T23:30:34.621Z,12.24
2022-11-08T23:33:01.347Z,12.24
2022-11-08T23:35:28.063Z,12.12
2022-11-08T23:37:55.076Z,12.07
2022-11-08T23:40:40.822Z,12.15
2022-11-08T23:43:32.784Z,12.22
2022-11-08T23:46:06.362Z,12.23
2022-11-08T23:48:32.827Z,12.25
2022-11-08T23:50:59.409Z,12.21
2022-11-08T23:53:26.126Z,12.22
2022-11-08T23:55:54.042Z,12.19
2022-11-08T23:58:20.594Z,12.20
